LFRU/MXN METAR and TAF weather

Enter ICAO airport designator
Station Type Date Time Source
LFRU METAR 2021/03/01 18:00 UTC NOAA

LFRU 011800Z AUTO 08008KT CAVOK 10/06 Q1024


Station Type Date Time Source
LFRU Decoded METAR 2021/03/01 18:00 UTC NOAA

Morlaix / Ploujean, France (LFRU) 48-36N 003-49W
Mar 01, 2021 - 01:00 PM EST / 2021.03.01 1800 UTC
Wind: from the E (080 degrees) at 9 MPH (8 KT):0
Visibility: greater than 7 mile(s):0
Temperature: 50 F (10 C)
Dew Point: 42 F (6 C)
Relative Humidity: 76%
Pressure (altimeter): 30.24 in. Hg (1024 hPa)
ob: LFRU 011800Z AUTO 08008KT CAVOK 10/06 Q1024
cycle: 18

Station Type Date Time Source
LFRU TAF UTC NOAA

Error!

Example: see airport list